createdAt,value
2023-04-08T00:00:53.519Z,12
2023-04-08T00:02:53.527Z,12
2023-04-08T00:04:53.514Z,12.1
2023-04-08T00:06:53.588Z,12
2023-04-08T00:08:53.512Z,12
2023-04-08T00:10:53.475Z,11.9
2023-04-08T00:12:53.502Z,11.9
2023-04-08T00:14:53.491Z,12
2023-04-08T00:16:53.483Z,11.9
2023-04-08T00:18:53.473Z,11.8
2023-04-08T00:20:53.524Z,11.8
2023-04-08T00:22:53.539Z,11.8
2023-04-08T00:24:53.461Z,11.9
2023-04-08T00:26:53.476Z,11.8
2023-04-08T00:28:53.450Z,11.8
2023-04-08T00:30:53.534Z,11.8
2023-04-08T00:32:53.487Z,11.8
2023-04-08T00:34:53.464Z,11.9
2023-04-08T00:36:53.490Z,11.8
2023-04-08T00:38:53.446Z,11.9
2023-04-08T00:40:53.475Z,11.8
2023-04-08T00:42:53.454Z,11.8
2023-04-08T00:44:53.387Z,11.9
2023-04-08T00:46:53.427Z,11.9
2023-04-08T00:48:53.470Z,11.8
2023-04-08T00:50:53.452Z,11.8
2023-04-08T00:52:53.439Z,11.8
2023-04-08T00:54:53.468Z,11.9
2023-04-08T00:56:53.425Z,11.9
2023-04-08T00:58:53.519Z,11.9
2023-04-08T01:00:53.476Z,11.9
2023-04-08T01:02:53.587Z,11.9
2023-04-08T01:04:53.413Z,12
2023-04-08T01:06:53.492Z,12
2023-04-08T01:08:53.401Z,11.9
2023-04-08T01:10:53.423Z,11.9
2023-04-08T01:12:53.471Z,11.9
2023-04-08T01:14:53.413Z,11.9
2023-04-08T01:16:53.387Z,11.9
2023-04-08T01:18:53.464Z,11.9
2023-04-08T01:20:53.408Z,11.8
2023-04-08T01:22:53.370Z,11.8
2023-04-08T01:24:53.353Z,11.9
2023-04-08T01:26:54.450Z,11.9
2023-04-08T01:28:53.390Z,11.9
2023-04-08T01:30:53.383Z,11.9
2023-04-08T01:32:53.480Z,11.8
2023-04-08T01:34:53.356Z,11.8
2023-04-08T01:36:53.370Z,11.8
2023-04-08T01:38:53.398Z,11.7
2023-04-08T01:40:53.368Z,11.7
2023-04-08T01:42:53.353Z,11.6
2023-04-08T01:44:53.310Z,11.6
2023-04-08T01:46:53.412Z,11.6
2023-04-08T01:48:53.355Z,11.6
2023-04-08T01:50:53.358Z,11.6
2023-04-08T01:52:53.369Z,11.6
2023-04-08T01:54:53.428Z,11.7
2023-04-08T01:56:53.369Z,11.7
2023-04-08T01:58:53.410Z,11.7
2023-04-08T02:00:53.318Z,11.7
2023-04-08T02:02:53.574Z,11.8
2023-04-08T02:04:53.321Z,11.9
2023-04-08T02:06:53.351Z,11.9
2023-04-08T02:08:53.355Z,11.8
2023-04-08T02:10:53.326Z,12.1
2023-04-08T02:12:53.358Z,12
2023-04-08T02:14:53.346Z,12
2023-04-08T02:16:53.538Z,11.9
2023-04-08T02:18:53.318Z,12
2023-04-08T02:20:53.334Z,11.9
2023-04-08T02:22:53.351Z,11.9
2023-04-08T02:24:53.320Z,11.9
2023-04-08T02:26:53.318Z,11.9
2023-04-08T02:28:53.303Z,11.9
2023-04-08T02:30:53.347Z,11.9
2023-04-08T02:32:53.348Z,12
2023-04-08T02:34:53.321Z,12
2023-04-08T02:36:53.314Z,12
2023-04-08T02:38:53.312Z,12
2023-04-08T02:40:53.308Z,11.9
2023-04-08T02:42:53.302Z,12.1
2023-04-08T02:44:53.308Z,12.2
2023-04-08T02:46:53.316Z,12.1
2023-04-08T02:48:53.268Z,12
2023-04-08T02:50:53.302Z,12.1
2023-04-08T02:52:53.295Z,12
2023-04-08T02:54:53.271Z,12.2
2023-04-08T02:56:53.257Z,12.1
2023-04-08T02:58:53.278Z,12.2
2023-04-08T03:00:53.297Z,12.1
2023-04-08T03:02:53.424Z,12.1
2023-04-08T03:04:53.258Z,12.4
2023-04-08T03:06:53.376Z,12.3
2023-04-08T03:08:53.259Z,12.4
2023-04-08T03:10:53.246Z,12.3
2023-04-08T03:12:53.259Z,12.1
2023-04-08T03:14:53.245Z,12.3
2023-04-08T03:16:53.780Z,12.2
2023-04-08T03:18:53.250Z,12.1
2023-04-08T03:20:53.260Z,12.1
2023-04-08T03:22:53.223Z,12
2023-04-08T03:24:53.289Z,12.2
2023-04-08T03:26:53.400Z,12.1
2023-04-08T03:28:53.288Z,12.2
2023-04-08T03:30:53.238Z,12.2
2023-04-08T03:32:53.310Z,12.1
2023-04-08T03:34:53.241Z,12
2023-04-08T03:36:53.224Z,12.1
2023-04-08T03:38:53.228Z,12
2023-04-08T03:40:53.227Z,12
2023-04-08T03:42:53.215Z,11.9
2023-04-08T03:44:53.226Z,12
2023-04-08T03:46:53.237Z,12.1
2023-04-08T03:48:53.228Z,12
2023-04-08T03:50:53.280Z,12
2023-04-08T03:52:53.204Z,12
2023-04-08T03:54:53.254Z,12
2023-04-08T03:56:53.248Z,12
2023-04-08T03:58:53.224Z,12.1
2023-04-08T04:00:53.237Z,12.1
2023-04-08T04:02:53.310Z,12.2
2023-04-08T04:04:53.217Z,12.3
2023-04-08T04:06:53.187Z,12.3
2023-04-08T04:08:53.197Z,12.3
2023-04-08T04:10:53.171Z,12.2
2023-04-08T04:12:53.195Z,12.2
2023-04-08T04:14:53.149Z,12.3
2023-04-08T04:16:53.182Z,12.3
2023-04-08T04:18:53.430Z,12.3
2023-04-08T04:20:53.148Z,12.3
2023-04-08T04:22:53.222Z,12.3
2023-04-08T04:24:53.189Z,12.3
2023-04-08T04:26:53.142Z,12.3
2023-04-08T04:28:53.279Z,12.3
2023-04-08T04:30:54.694Z,12.3
2023-04-08T04:32:53.165Z,12.3
2023-04-08T04:34:53.175Z,12.4
2023-04-08T04:36:53.155Z,12.5
2023-04-08T04:38:53.310Z,12.4
2023-04-08T04:40:53.148Z,12.5
2023-04-08T04:42:53.150Z,12.4
2023-04-08T04:44:53.162Z,12.5
2023-04-08T04:46:53.164Z,12.5
2023-04-08T04:48:53.136Z,12.4
2023-04-08T04:50:53.112Z,12.4
2023-04-08T04:52:53.137Z,12.4
2023-04-08T04:54:53.159Z,12.4
2023-04-08T04:56:53.136Z,12.5
2023-04-08T04:58:53.132Z,12.5
2023-04-08T05:00:53.119Z,12.5
2023-04-08T05:02:53.306Z,12.4
2023-04-08T05:04:53.172Z,12.5
2023-04-08T05:06:53.104Z,12.5
2023-04-08T05:08:53.121Z,12.4
2023-04-08T05:10:53.133Z,12.4
2023-04-08T05:12:53.114Z,12.4
2023-04-08T05:14:53.088Z,12.4
2023-04-08T05:16:53.555Z,12.5
2023-04-08T05:18:53.251Z,12.5
2023-04-08T05:20:53.123Z,12.6
2023-04-08T05:22:53.393Z,12.4
2023-04-08T05:24:53.277Z,12.4
2023-04-08T05:26:53.504Z,12.4
2023-04-08T05:28:53.272Z,12.4
2023-04-08T05:30:53.277Z,12.4
2023-04-08T05:32:53.275Z,12.5
2023-04-08T05:34:53.388Z,12.7
2023-04-08T05:36:53.303Z,12.8
2023-04-08T05:38:53.286Z,12.6
2023-04-08T05:40:53.234Z,12.5
2023-04-08T05:42:53.134Z,12.7
2023-04-08T05:44:53.140Z,12.7
2023-04-08T05:46:53.138Z,12.6
2023-04-08T05:48:53.198Z,12.5
2023-04-08T05:50:53.298Z,12.5
2023-04-08T05:52:53.302Z,12.4
2023-04-08T05:54:53.386Z,12.4
2023-04-08T05:56:53.333Z,12.5
2023-04-08T05:58:53.413Z,12.4
2023-04-08T06:00:53.275Z,12.5
2023-04-08T06:02:53.547Z,12.5
2023-04-08T06:04:53.229Z,12.6
2023-04-08T06:06:53.132Z,12.6
2023-04-08T06:08:53.301Z,12.5
2023-04-08T06:10:53.174Z,12.4
2023-04-08T06:12:53.313Z,12.4
2023-04-08T06:14:53.248Z,12.4
2023-04-08T06:16:53.403Z,12.5
2023-04-08T06:18:53.572Z,12.4
2023-04-08T06:20:53.344Z,12.4
2023-04-08T06:22:53.312Z,12.5
2023-04-08T06:24:53.342Z,12.5
2023-04-08T06:26:53.306Z,12.5
2023-04-08T06:28:53.250Z,12.6
2023-04-08T06:30:53.246Z,12.7
2023-04-08T06:32:53.375Z,12.5
2023-04-08T06:34:53.215Z,12.4
2023-04-08T06:36:53.385Z,12.4
2023-04-08T06:38:53.491Z,12.5
2023-04-08T06:40:53.422Z,12.3
2023-04-08T06:42:53.437Z,12.3
2023-04-08T06:44:53.225Z,12.4
2023-04-08T06:46:53.363Z,12.4
2023-04-08T06:48:53.497Z,12.3
2023-04-08T06:50:53.245Z,12.4
2023-04-08T06:52:53.413Z,12.3
2023-04-08T06:54:53.224Z,12.3
2023-04-08T06:56:53.198Z,12.3
2023-04-08T06:58:53.485Z,12.2
2023-04-08T07:00:53.222Z,12.2
2023-04-08T07:02:53.366Z,12.2
2023-04-08T07:04:53.234Z,12.2
2023-04-08T07:06:53.329Z,12.3
2023-04-08T07:08:53.232Z,12.3
2023-04-08T07:10:53.226Z,12.2
2023-04-08T07:12:53.189Z,12.2
2023-04-08T07:14:53.209Z,12.2
2023-04-08T07:16:53.339Z,12.2
2023-04-08T07:18:53.184Z,12.2
2023-04-08T07:20:53.243Z,12.2
2023-04-08T07:22:53.175Z,12.3
2023-04-08T07:24:53.217Z,12.3
2023-04-08T07:26:53.179Z,12.3
2023-04-08T07:28:53.472Z,12.3
2023-04-08T07:30:53.277Z,12.3
2023-04-08T07:32:53.231Z,12.3
2023-04-08T07:34:53.218Z,12.3
2023-04-08T07:36:53.046Z,12.3
2023-04-08T07:38:53.151Z,12.3
2023-04-08T07:40:53.028Z,12.3
2023-04-08T07:42:53.192Z,12.3
2023-04-08T07:44:53.087Z,12.3
2023-04-08T07:46:53.169Z,12.3
2023-04-08T07:48:53.343Z,12.2
2023-04-08T07:51:07.849Z,12.2
2023-04-08T07:52:53.348Z,12.2
2023-04-08T07:54:53.046Z,12.3
2023-04-08T07:56:53.220Z,12.3
2023-04-08T07:58:53.782Z,12.3
2023-04-08T08:00:53.112Z,12.3
2023-04-08T08:02:53.171Z,12.3
2023-04-08T08:04:53.135Z,12.4
2023-04-08T08:06:53.171Z,12.5
2023-04-08T08:08:53.111Z,12.5
2023-04-08T08:10:53.170Z,12.4
2023-04-08T08:12:53.129Z,12.5
2023-04-08T08:14:53.167Z,12.4
2023-04-08T08:16:53.138Z,12.5
2023-04-08T08:18:53.114Z,12.4
2023-04-08T08:20:53.094Z,12.4
2023-04-08T08:22:57.467Z,12.4
2023-04-08T08:24:53.122Z,12.4
2023-04-08T08:26:53.140Z,12.4
2023-04-08T08:28:53.105Z,12.4
2023-04-08T08:30:53.120Z,12.4
2023-04-08T08:32:53.146Z,12.3
2023-04-08T08:34:53.136Z,12.3
2023-04-08T08:36:53.144Z,12.4
2023-04-08T08:38:53.138Z,12.3
2023-04-08T08:40:53.146Z,12.3
2023-04-08T08:42:53.110Z,12.3
2023-04-08T08:44:53.116Z,12.2
2023-04-08T08:46:53.184Z,12.2
2023-04-08T08:48:53.104Z,12.2
2023-04-08T08:50:53.081Z,12.2
2023-04-08T08:52:53.077Z,12.1
2023-04-08T08:54:53.074Z,12.1
2023-04-08T08:56:53.149Z,12.2
2023-04-08T08:58:53.149Z,12.2
2023-04-08T09:00:53.085Z,12.2
2023-04-08T09:02:53.196Z,12.1
2023-04-08T09:04:53.156Z,12.1
2023-04-08T09:06:53.101Z,12.1
2023-04-08T09:08:53.074Z,12.1
2023-04-08T09:10:53.068Z,12.1
2023-04-08T09:12:53.182Z,12.1
2023-04-08T09:14:52.931Z,12
2023-04-08T09:16:53.128Z,12.1
2023-04-08T09:18:53.088Z,12
2023-04-08T09:20:53.135Z,12.1
2023-04-08T09:22:53.034Z,12.1
2023-04-08T09:24:53.053Z,12.1
2023-04-08T09:26:53.045Z,12.1
2023-04-08T09:28:52.926Z,12.1
2023-04-08T09:30:53.066Z,12.1
2023-04-08T09:32:53.146Z,12.1
2023-04-08T09:34:53.025Z,12.2
2023-04-08T09:36:53.026Z,12.2
2023-04-08T09:38:53.047Z,12.2
2023-04-08T09:40:52.993Z,12.2
2023-04-08T09:42:52.943Z,12.2
2023-04-08T09:44:53.019Z,12.2
2023-04-08T09:46:53.005Z,12.2
2023-04-08T09:48:53.120Z,12.1
2023-04-08T09:50:53.056Z,12.1
2023-04-08T09:52:52.867Z,12.1
2023-04-08T09:54:52.746Z,12
2023-04-08T09:56:52.783Z,12.1
2023-04-08T09:58:53.031Z,12.1
2023-04-08T10:00:53.013Z,12.1
2023-04-08T10:02:52.968Z,12.1
2023-04-08T10:04:52.907Z,12.2
2023-04-08T10:06:52.981Z,12.2
2023-04-08T10:08:53.072Z,12.2
2023-04-08T10:10:52.952Z,12.2
2023-04-08T10:12:53.034Z,12.2
2023-04-08T10:14:52.976Z,12.2
2023-04-08T10:16:53.003Z,12.2
2023-04-08T10:18:52.851Z,12.2
2023-04-08T10:20:52.882Z,12.2
2023-04-08T10:22:52.930Z,12.2
2023-04-08T10:24:52.888Z,12.1
2023-04-08T10:26:52.905Z,12.1
2023-04-08T10:28:52.870Z,12.1
2023-04-08T10:30:52.842Z,12.1
2023-04-08T10:32:52.873Z,12
2023-04-08T10:34:52.882Z,12
2023-04-08T10:36:52.874Z,12
2023-04-08T10:38:52.877Z,12
2023-04-08T10:40:52.848Z,12
2023-04-08T10:42:52.870Z,12
2023-04-08T10:44:52.877Z,11.9
2023-04-08T10:46:52.851Z,12
2023-04-08T10:48:52.844Z,12
2023-04-08T10:50:52.885Z,12.1
2023-04-08T10:52:52.852Z,12.1
2023-04-08T10:54:52.858Z,12
2023-04-08T10:56:52.846Z,12.1
2023-04-08T10:58:52.841Z,12.1
2023-04-08T11:00:52.912Z,12.2
2023-04-08T11:02:52.939Z,12.2
2023-04-08T11:04:52.799Z,12.2
2023-04-08T11:06:52.864Z,12.3
2023-04-08T11:08:52.820Z,12.3
2023-04-08T11:10:52.802Z,12.3
2023-04-08T11:12:52.803Z,12.4
2023-04-08T11:14:52.775Z,12.4
2023-04-08T11:16:52.862Z,12.5
2023-04-08T11:18:52.843Z,12.5
2023-04-08T11:20:52.814Z,12.5
2023-04-08T11:22:52.762Z,12.6
2023-04-08T11:24:52.768Z,12.5
2023-04-08T11:26:52.754Z,12.6
2023-04-08T11:28:52.794Z,12.5
2023-04-08T11:30:52.670Z,12.5
2023-04-08T11:32:52.672Z,12.5
2023-04-08T11:34:52.736Z,12.4
2023-04-08T11:36:52.718Z,12.5
2023-04-08T11:38:52.745Z,12.6
2023-04-08T11:40:52.851Z,12.6
2023-04-08T11:42:52.720Z,12.5
2023-04-08T11:44:52.704Z,12.6
2023-04-08T11:46:52.811Z,12.6
2023-04-08T11:48:52.696Z,12.6
2023-04-08T11:50:52.639Z,12.6
2023-04-08T11:52:52.623Z,12.6
2023-04-08T11:54:52.622Z,12.7
2023-04-08T11:56:52.703Z,12.8
2023-04-08T11:58:52.712Z,12.8
2023-04-08T12:00:52.768Z,12.9
2023-04-08T12:02:52.945Z,12.9
2023-04-08T12:04:52.749Z,13
2023-04-08T12:06:52.821Z,13.1
2023-04-08T12:08:52.793Z,13.1
2023-04-08T12:10:53.983Z,13.2
2023-04-08T12:12:52.831Z,13.2
2023-04-08T12:14:52.832Z,13.3
2023-04-08T12:16:52.808Z,13.4
2023-04-08T12:18:52.818Z,13.4
2023-04-08T12:20:52.783Z,13.5
2023-04-08T12:22:52.861Z,13.6
2023-04-08T12:24:52.776Z,13.6
2023-04-08T12:26:52.885Z,13.8
2023-04-08T12:28:52.803Z,13.7
2023-04-08T12:30:52.780Z,13.8
2023-04-08T12:32:52.817Z,13.9
2023-04-08T12:34:52.674Z,13.9
2023-04-08T12:36:52.863Z,14
2023-04-08T12:38:52.935Z,14
2023-04-08T12:40:52.805Z,14
2023-04-08T12:42:52.768Z,13.9
2023-04-08T12:44:52.798Z,13.9
2023-04-08T12:46:52.809Z,14
2023-04-08T12:49:03.008Z,14
2023-04-08T12:50:52.682Z,14
2023-04-08T12:52:52.696Z,13.9
2023-04-08T12:54:52.681Z,13.9
2023-04-08T12:56:52.664Z,14
2023-04-08T12:58:52.854Z,13.9
2023-04-08T13:00:52.729Z,13.9
2023-04-08T13:02:52.755Z,13.9
2023-04-08T13:04:52.613Z,13.9
2023-04-08T13:06:52.691Z,14
2023-04-08T13:08:52.822Z,14
2023-04-08T13:10:52.708Z,13.9
2023-04-08T13:12:52.651Z,13.8
2023-04-08T13:14:52.643Z,13.8
2023-04-08T13:16:52.764Z,13.9
2023-04-08T13:18:52.820Z,13.8
2023-04-08T13:20:52.625Z,13.8
2023-04-08T13:22:52.720Z,13.7
2023-04-08T13:24:52.662Z,13.6
2023-04-08T13:26:52.501Z,13.7
2023-04-08T13:28:57.054Z,13.7
2023-04-08T13:30:52.522Z,13.5
2023-04-08T13:32:52.571Z,13.5
2023-04-08T13:34:52.477Z,13.4
2023-04-08T13:36:52.502Z,13.4
2023-04-08T13:38:52.694Z,13.4
2023-04-08T13:40:52.530Z,13.4
2023-04-08T13:42:52.473Z,13.4
2023-04-08T13:44:52.470Z,13.5
2023-04-08T13:46:52.473Z,13.5
2023-04-08T13:48:52.689Z,13.5
2023-04-08T13:50:52.494Z,13.5
2023-04-08T13:52:52.481Z,13.5
2023-04-08T13:54:52.498Z,13.6
2023-04-08T13:56:52.485Z,13.7
2023-04-08T13:58:57.044Z,13.6
2023-04-08T14:00:52.566Z,13.6
2023-04-08T14:02:52.601Z,13.7
2023-04-08T14:04:52.517Z,13.6
2023-04-08T14:06:52.429Z,13.8
2023-04-08T14:08:52.661Z,13.7
2023-04-08T14:10:52.465Z,13.6
2023-04-08T14:12:52.469Z,13.6
2023-04-08T14:14:52.426Z,13.5
2023-04-08T14:16:52.484Z,13.6
2023-04-08T14:18:52.804Z,13.6
2023-04-08T14:20:52.469Z,13.7
2023-04-08T14:22:52.410Z,13.8
2023-04-08T14:24:52.431Z,14
2023-04-08T14:26:52.419Z,13.9
2023-04-08T14:28:52.581Z,13.9
2023-04-08T14:30:52.479Z,13.8
2023-04-08T14:32:52.428Z,13.9
2023-04-08T14:34:52.411Z,14
2023-04-08T14:36:52.453Z,14.1
2023-04-08T14:38:52.628Z,14
2023-04-08T14:40:52.435Z,14.1
2023-04-08T14:42:52.427Z,14.2
2023-04-08T14:44:52.421Z,14.2
2023-04-08T14:46:52.491Z,14.2
2023-04-08T14:48:52.508Z,14.3
2023-04-08T14:50:52.356Z,14.3
2023-04-08T14:52:52.387Z,14.5
2023-04-08T14:54:52.432Z,14.6
2023-04-08T14:56:52.448Z,14.7
2023-04-08T14:58:52.547Z,14.9
2023-04-08T15:00:52.394Z,14.9
2023-04-08T15:02:52.483Z,14.9
2023-04-08T15:04:52.396Z,14.9
2023-04-08T15:06:52.396Z,14.9
2023-04-08T15:08:52.551Z,14.9
2023-04-08T15:10:52.391Z,14.8
2023-04-08T15:12:52.427Z,14.8
2023-04-08T15:14:52.378Z,14.8
2023-04-08T15:16:52.383Z,15
2023-04-08T15:18:52.550Z,15.1
2023-04-08T15:20:53.051Z,15.2
2023-04-08T15:22:53.839Z,15.4
2023-04-08T15:24:52.363Z,15.6
2023-04-08T15:26:52.379Z,15.8
2023-04-08T15:28:52.505Z,15.8
2023-04-08T15:30:52.356Z,16
2023-04-08T15:32:52.355Z,16.2
2023-04-08T15:34:52.350Z,16.1
2023-04-08T15:36:52.323Z,16.1
2023-04-08T15:38:52.470Z,16.1
2023-04-08T15:40:52.319Z,16.2
2023-04-08T15:42:52.336Z,16.1
2023-04-08T15:44:52.304Z,16
2023-04-08T15:46:52.354Z,16.3
2023-04-08T15:48:52.547Z,16.4
2023-04-08T15:50:52.326Z,16.2
2023-04-08T15:52:52.316Z,16
2023-04-08T15:54:52.297Z,15.8
2023-04-08T15:56:52.319Z,15.9
2023-04-08T15:58:52.495Z,15.6
2023-04-08T16:00:52.292Z,15.5
2023-04-08T16:02:52.499Z,15.4
2023-04-08T16:04:52.297Z,15.3
2023-04-08T16:06:52.352Z,15.4
2023-04-08T16:08:52.555Z,15.3
2023-04-08T16:10:52.281Z,15.4
2023-04-08T16:12:52.278Z,15.3
2023-04-08T16:14:52.298Z,15.2
2023-04-08T16:16:52.281Z,15.3
2023-04-08T16:18:52.521Z,15.2
2023-04-08T16:20:52.318Z,15.2
2023-04-08T16:22:52.286Z,15.2
2023-04-08T16:24:52.345Z,15.1
2023-04-08T16:26:52.539Z,15.3
2023-04-08T16:28:52.543Z,15.2
2023-04-08T16:30:52.267Z,15.2
2023-04-08T16:32:52.298Z,15.2
2023-04-08T16:34:52.315Z,15.2
2023-04-08T16:36:52.257Z,15.2
2023-04-08T16:38:52.232Z,15.3
2023-04-08T16:40:52.263Z,15.1
2023-04-08T16:42:52.262Z,15.2
2023-04-08T16:44:52.248Z,15.1
2023-04-08T16:46:52.281Z,15.2
2023-04-08T16:48:52.243Z,15
2023-04-08T16:50:52.241Z,15
2023-04-08T16:52:52.237Z,15
2023-04-08T16:54:52.242Z,15.1
2023-04-08T16:56:52.252Z,15.1
2023-04-08T16:58:52.234Z,14.9
2023-04-08T17:00:52.280Z,14.9
2023-04-08T17:02:52.416Z,15
2023-04-08T17:04:52.234Z,15.1
2023-04-08T17:06:52.266Z,15.2
2023-04-08T17:08:52.486Z,15.2
2023-04-08T17:10:52.230Z,15.2
2023-04-08T17:12:52.214Z,15.3
2023-04-08T17:14:52.275Z,15.3
2023-04-08T17:16:52.224Z,15.2
2023-04-08T17:18:52.345Z,15
2023-04-08T17:20:52.236Z,15
2023-04-08T17:22:52.231Z,15.2
2023-04-08T17:24:52.203Z,15
2023-04-08T17:26:52.196Z,15.1
2023-04-08T17:28:52.187Z,15
2023-04-08T17:30:52.194Z,15
2023-04-08T17:32:52.244Z,15.1
2023-04-08T17:34:52.256Z,15
2023-04-08T17:36:52.172Z,15.1
2023-04-08T17:38:52.201Z,15
2023-04-08T17:40:52.174Z,15
2023-04-08T17:42:52.202Z,14.9
2023-04-08T17:44:52.202Z,15
2023-04-08T17:46:52.211Z,15
2023-04-08T17:48:52.202Z,15.1
2023-04-08T17:50:52.184Z,15.1
2023-04-08T17:52:52.189Z,15
2023-04-08T17:54:52.176Z,14.9
2023-04-08T17:56:52.168Z,15
2023-04-08T17:58:52.183Z,15
2023-04-08T18:00:52.196Z,15
2023-04-08T18:02:52.278Z,15
2023-04-08T18:04:52.143Z,15.1
2023-04-08T18:06:52.149Z,15.1
2023-04-08T18:08:52.177Z,15.1
2023-04-08T18:10:52.167Z,15.1
2023-04-08T18:12:57.716Z,15
2023-04-08T18:14:52.131Z,14.9
2023-04-08T18:16:52.191Z,14.9
2023-04-08T18:18:52.140Z,14.9
2023-04-08T18:20:52.149Z,14.8
2023-04-08T18:22:52.160Z,14.8
2023-04-08T18:24:52.132Z,14.8
2023-04-08T18:26:57.921Z,14.9
2023-04-08T18:28:52.119Z,14.9
2023-04-08T18:30:52.191Z,14.9
2023-04-08T18:32:52.271Z,15.1
2023-04-08T18:34:52.133Z,14.8
2023-04-08T18:36:52.123Z,14.9
2023-04-08T18:38:52.157Z,14.7
2023-04-08T18:40:52.111Z,14.7
2023-04-08T18:42:52.083Z,14.6
2023-04-08T18:44:52.112Z,14.5
2023-04-08T18:46:52.117Z,14.7
2023-04-08T18:48:52.107Z,14.5
2023-04-08T18:50:52.121Z,14.4
2023-04-08T18:52:52.110Z,14.3
2023-04-08T18:54:52.115Z,14.3
2023-04-08T18:56:52.099Z,14.3
2023-04-08T18:58:52.088Z,14.2
2023-04-08T19:00:52.074Z,14.2
2023-04-08T19:02:52.170Z,14.1
2023-04-08T19:04:52.138Z,14.1
2023-04-08T19:06:52.105Z,14.2
2023-04-08T19:08:52.080Z,14.1
2023-04-08T19:10:52.094Z,14.1
2023-04-08T19:12:52.120Z,13.9
2023-04-08T19:14:52.060Z,14
2023-04-08T19:16:52.070Z,13.9
2023-04-08T19:18:52.093Z,13.7
2023-04-08T19:20:52.042Z,13.7
2023-04-08T19:22:52.168Z,13.7
2023-04-08T19:24:53.775Z,13.6
2023-04-08T19:26:52.058Z,13.6
2023-04-08T19:28:52.046Z,13.4
2023-04-08T19:30:52.065Z,13.4
2023-04-08T19:32:52.129Z,13.4
2023-04-08T19:34:52.050Z,13.2
2023-04-08T19:36:52.064Z,13.3
2023-04-08T19:38:52.065Z,13.2
2023-04-08T19:40:52.057Z,13.3
2023-04-08T19:42:52.092Z,13.2
2023-04-08T19:44:52.058Z,13.2
2023-04-08T19:46:52.860Z,13.2
2023-04-08T19:48:52.060Z,13.3
2023-04-08T19:50:52.337Z,13.4
2023-04-08T19:52:52.056Z,13.5
2023-04-08T19:54:52.031Z,13.5
2023-04-08T19:56:51.961Z,13.5
2023-04-08T19:58:52.131Z,13.5
2023-04-08T20:00:52.016Z,13.3
2023-04-08T20:02:52.232Z,13.3
2023-04-08T20:04:52.009Z,13.2
2023-04-08T20:06:51.987Z,13.3
2023-04-08T20:08:52.567Z,13.2
2023-04-08T20:10:52.004Z,13.1
2023-04-08T20:12:52.105Z,13.1
2023-04-08T20:14:52.006Z,13.1
2023-04-08T20:16:52.014Z,13
2023-04-08T20:18:52.284Z,12.9
2023-04-08T20:20:52.003Z,12.8
2023-04-08T20:22:52.006Z,12.8
2023-04-08T20:24:52.026Z,12.7
2023-04-08T20:26:52.087Z,12.7
2023-04-08T20:28:52.286Z,12.6
2023-04-08T20:30:52.060Z,12.5
2023-04-08T20:32:52.091Z,12.5
2023-04-08T20:34:52.041Z,12.3
2023-04-08T20:36:51.940Z,12.3
2023-04-08T20:38:52.200Z,12.2
2023-04-08T20:40:51.979Z,12.1
2023-04-08T20:42:51.961Z,12
2023-04-08T20:44:51.989Z,12
2023-04-08T20:46:51.970Z,12.1
2023-04-08T20:48:52.033Z,12.1
2023-04-08T20:50:52.002Z,11.9
2023-04-08T20:52:51.955Z,11.8
2023-04-08T20:54:51.978Z,11.7
2023-04-08T20:56:51.898Z,11.7
2023-04-08T20:58:52.114Z,11.6
2023-04-08T21:00:51.990Z,11.7
2023-04-08T21:02:51.998Z,11.5
2023-04-08T21:04:51.983Z,11.5
2023-04-08T21:06:52.017Z,11.5
2023-04-08T21:08:52.083Z,11.5
2023-04-08T21:10:51.933Z,11.5
2023-04-08T21:12:52.012Z,11.4
2023-04-08T21:14:51.941Z,11.4
2023-04-08T21:16:51.975Z,11.4
2023-04-08T21:18:52.154Z,11.4
2023-04-08T21:20:51.914Z,11.4
2023-04-08T21:22:51.904Z,11.3
2023-04-08T21:24:51.897Z,11.3
2023-04-08T21:26:51.904Z,11.4
2023-04-08T21:28:52.064Z,11.4
2023-04-08T21:30:51.937Z,11.4
2023-04-08T21:32:51.921Z,11.4
2023-04-08T21:34:51.917Z,11.4
2023-04-08T21:36:51.890Z,11.5
2023-04-08T21:38:52.186Z,11.5
2023-04-08T21:40:51.902Z,11.4
2023-04-08T21:42:51.898Z,11.4
2023-04-08T21:44:51.886Z,11.3
2023-04-08T21:46:51.888Z,11.4
2023-04-08T21:48:52.031Z,11.3
2023-04-08T21:50:51.874Z,11.3
2023-04-08T21:52:51.860Z,11.2
2023-04-08T21:54:51.872Z,11.3
2023-04-08T21:56:51.864Z,11.4
2023-04-08T21:58:51.989Z,11.4
2023-04-08T22:00:51.876Z,11.3
2023-04-08T22:02:51.968Z,11.3
2023-04-08T22:04:51.860Z,11.3
2023-04-08T22:06:51.861Z,11.3
2023-04-08T22:08:51.957Z,11.3
2023-04-08T22:10:51.850Z,11.2
2023-04-08T22:12:51.847Z,11.2
2023-04-08T22:14:51.850Z,11.2
2023-04-08T22:16:52.003Z,11.2
2023-04-08T22:18:52.063Z,11.2
2023-04-08T22:20:51.841Z,11.2
2023-04-08T22:22:51.828Z,11.3
2023-04-08T22:24:51.834Z,11.3
2023-04-08T22:26:51.831Z,11.3
2023-04-08T22:28:51.980Z,11.3
2023-04-08T22:30:51.862Z,11.3
2023-04-08T22:32:51.836Z,11.2
2023-04-08T22:34:51.831Z,11.2
2023-04-08T22:36:51.835Z,11.2
2023-04-08T22:38:51.976Z,11.2
2023-04-08T22:40:51.811Z,11.2
2023-04-08T22:42:51.879Z,11.2
2023-04-08T22:44:51.828Z,11.2
2023-04-08T22:46:51.837Z,11.2
2023-04-08T22:48:51.987Z,11.2
2023-04-08T22:50:51.829Z,11.1
2023-04-08T22:52:51.794Z,11.1
2023-04-08T22:54:51.789Z,11
2023-04-08T22:56:51.823Z,11.1
2023-04-08T22:58:52.030Z,11.1
2023-04-08T23:00:51.801Z,11
2023-04-08T23:02:51.893Z,11
2023-04-08T23:04:51.784Z,11
2023-04-08T23:06:51.826Z,11
2023-04-08T23:08:51.949Z,11
2023-04-08T23:10:51.796Z,11
2023-04-08T23:12:51.766Z,10.9
2023-04-08T23:14:51.786Z,10.8
2023-04-08T23:16:51.786Z,10.9
2023-04-08T23:18:51.961Z,10.9
2023-04-08T23:20:51.762Z,10.9
2023-04-08T23:22:51.770Z,10.9
2023-04-08T23:24:51.765Z,10.8
2023-04-08T23:26:51.828Z,10.7
2023-04-08T23:28:51.971Z,10.7
2023-04-08T23:30:51.801Z,10.7
2023-04-08T23:32:51.772Z,10.7
2023-04-08T23:34:51.783Z,10.6
2023-04-08T23:36:51.750Z,10.6
2023-04-08T23:38:51.914Z,10.6
2023-04-08T23:40:51.731Z,10.6
2023-04-08T23:42:51.753Z,10.6
2023-04-08T23:44:51.737Z,10.6
2023-04-08T23:46:53.015Z,10.6
2023-04-08T23:48:52.021Z,10.6
2023-04-08T23:50:51.726Z,10.6
2023-04-08T23:52:51.708Z,10.6
2023-04-08T23:54:51.731Z,10.5
2023-04-08T23:56:51.721Z,10.6
2023-04-08T23:58:51.945Z,10.6
